Time;durP1;ratioP1;P1;durP2;ratioP2;P2;SDS_P1;SDS_P2;PMS_P1;PMS_P2;Temp;Humidity;BMP_temperature;BMP_pressure;BME280_temperature;BME280_humidity;BME280_pressure;Samples;Min_cycle;Max_cycle;Signal;HPM_P1;HPM_P2
2022/06/09 00:02:22;;;;;;;0.40;0.20;;;15.60;99.90;;;;;;5066929;28;20531;-69
2022/06/09 00:04:48;;;;;;;0.40;0.20;;;15.60;99.90;;;;;;5063835;28;20402;-69
2022/06/09 00:07:17;;;;;;;0.40;0.20;;;15.70;99.90;;;;;;5070148;28;20380;-69
2022/06/09 00:09:58;;;;;;;0.40;0.20;;;15.60;99.90;;;;;;5069509;28;20388;-68
2022/06/09 00:12:25;;;;;;;0.40;0.20;;;15.70;99.90;;;;;;5070184;28;20387;-68
2022/06/09 00:14:51;;;;;;;0.40;0.20;;;15.70;99.90;;;;;;5070623;28;20388;-69
2022/06/09 00:17:16;;;;;;;0.40;0.30;;;15.70;99.90;;;;;;5070068;28;20382;-68
2022/06/09 00:19:42;;;;;;;0.40;0.20;;;15.70;99.90;;;;;;5070088;28;20487;-68
2022/06/09 00:22:08;;;;;;;0.40;0.20;;;15.70;99.90;;;;;;5069981;28;20413;-70
2022/06/09 00:24:34;;;;;;;0.40;0.20;;;15.70;99.90;;;;;;5070745;28;20411;-69
2022/06/09 00:26:59;;;;;;;0.40;0.20;;;15.70;99.90;;;;;;5070920;28;20510;-67
2022/06/09 00:29:25;;;;;;;0.40;0.20;;;15.70;99.90;;;;;;5069878;28;20407;-68
2022/06/09 00:31:51;;;;;;;0.40;0.20;;;15.70;99.90;;;;;;5070575;28;20391;-67
2022/06/09 00:34:16;;;;;;;0.40;0.20;;;15.60;99.90;;;;;;5045416;28;20407;-68
2022/06/09 00:36:42;;;;;;;0.40;0.30;;;15.60;99.90;;;;;;5041495;28;20381;-68
2022/06/09 00:39:08;;;;;;;0.40;0.20;;;15.70;99.90;;;;;;5049823;28;20385;-68
2022/06/09 00:41:39;;;;;;;0.40;0.20;;;15.60;99.90;;;;;;5050841;28;20499;-68
2022/06/09 00:44:21;;;;;;;0.40;0.30;;;15.60;99.90;;;;;;5049857;28;20410;-68
2022/06/09 00:47:01;;;;;;;0.40;0.20;;;15.60;99.90;;;;;;5050455;28;20778;-67
2022/06/09 00:49:56;;;;;;;0.40;0.20;;;15.60;99.90;;;;;;5049607;28;21021;-67
2022/06/09 00:52:24;;;;;;;0.40;0.20;;;15.60;99.90;;;;;;5048955;28;20415;-67
2022/06/09 00:54:55;;;;;;;0.50;0.50;;;15.60;99.90;;;;;;5061435;28;20804;-67
2022/06/09 00:57:34;;;;;;;0.40;0.30;;;15.60;99.90;;;;;;5050350;28;20381;-69
2022/06/09 01:00:10;;;;;;;0.40;0.20;;;15.50;99.90;;;;;;5072019;28;20406;-67
2022/06/09 01:02:36;;;;;;;0.40;0.30;;;15.50;99.90;;;;;;5074518;28;20386;-68
2022/06/09 01:05:06;;;;;;;0.40;0.20;;;15.60;99.90;;;;;;5074595;28;20440;-70
2022/06/09 01:07:45;;;;;;;0.40;0.20;;;15.50;99.90;;;;;;5073597;28;20906;-68
2022/06/09 01:10:11;;;;;;;0.40;0.20;;;15.50;99.90;;;;;;5073908;28;20384;-68
2022/06/09 01:12:43;;;;;;;0.40;0.20;;;15.50;99.90;;;;;;5056299;28;20421;-68
2022/06/09 01:15:17;;;;;;;0.40;0.25;;;15.50;99.90;;;;;;5073722;28;20434;-69
2022/06/09 01:17:48;;;;;;;0.40;0.20;;;15.50;99.90;;;;;;5074290;28;20790;-68
2022/06/09 01:20:31;;;;;;;0.40;0.30;;;15.50;99.90;;;;;;5073533;28;20377;-68
2022/06/09 01:23:25;;;;;;;0.40;0.20;;;15.50;99.90;;;;;;5074211;28;20380;-68
2022/06/09 01:26:05;;;;;;;0.40;0.30;;;15.40;99.90;;;;;;5074020;28;20387;-68
2022/06/09 01:28:51;;;;;;;0.40;0.20;;;15.50;99.90;;;;;;5055179;28;20412;-68
2022/06/09 01:31:30;;;;;;;0.40;0.25;;;15.40;99.90;;;;;;5072826;28;20929;-67
2022/06/09 01:34:03;;;;;;;0.40;0.20;;;15.40;99.90;;;;;;5074060;28;20376;-67
2022/06/09 01:36:46;;;;;;;0.40;0.20;;;15.40;99.90;;;;;;5072977;28;20996;-68
2022/06/09 01:39:11;;;;;;;0.40;0.20;;;15.40;99.90;;;;;;5072854;28;20388;-68
2022/06/09 01:41:47;;;;;;;0.40;0.20;;;15.40;99.90;;;;;;5073459;28;20394;-68
2022/06/09 01:44:12;;;;;;;0.40;0.20;;;15.40;99.90;;;;;;5072671;28;20411;-68
2022/06/09 01:46:39;;;;;;;0.40;0.20;;;15.40;99.90;;;;;;5073402;28;20471;-68
2022/06/09 01:49:14;;;;;;;0.40;0.20;;;15.50;99.90;;;;;;5073259;28;20406;-67
2022/06/09 01:51:43;;;;;;;0.40;0.20;;;15.40;99.90;;;;;;5073507;28;20403;-69
2022/06/09 01:54:26;;;;;;;0.40;0.30;;;15.50;99.90;;;;;;5073370;28;20430;-69
2022/06/09 01:56:57;;;;;;;0.40;0.20;;;15.40;99.90;;;;;;5073851;28;20387;-67
2022/06/09 01:59:27;;;;;;;0.40;0.30;;;15.40;99.90;;;;;;5072569;28;20386;-68
2022/06/09 02:02:34;;;;;;;0.40;0.30;;;15.40;99.90;;;;;;5073746;28;20392;-67
2022/06/09 02:05:11;;;;;;;0.40;0.20;;;15.40;99.90;;;;;;5072439;28;20400;-68
2022/06/09 02:07:39;;;;;;;0.40;0.20;;;15.50;99.90;;;;;;5073105;28;20412;-68
2022/06/09 02:10:33;;;;;;;0.40;0.30;;;15.40;99.90;;;;;;5072652;28;20437;-67
2022/06/09 02:13:08;;;;;;;0.40;0.20;;;15.40;99.90;;;;;;5070014;28;20399;-67
2022/06/09 02:15:46;;;;;;;0.70;0.70;;;15.40;99.90;;;;;;5072535;28;20390;-68
2022/06/09 02:18:19;;;;;;;0.40;0.20;;;15.30;99.90;;;;;;5072416;28;20388;-68
2022/06/09 02:20:55;;;;;;;0.40;0.20;;;15.30;99.90;;;;;;5073287;28;20439;-67
2022/06/09 02:23:22;;;;;;;0.40;0.20;;;15.30;99.90;;;;;;5072313;28;20383;-67
2022/06/09 02:25:48;;;;;;;0.40;0.30;;;15.30;99.90;;;;;;5072953;28;20786;-68
2022/06/09 02:28:13;;;;;;;0.40;0.30;;;15.20;99.90;;;;;;5072132;28;20403;-67
2022/06/09 02:30:39;;;;;;;0.40;0.22;;;15.20;99.90;;;;;;5064850;28;20445;-69
2022/06/09 02:33:05;;;;;;;0.40;0.20;;;15.20;99.90;;;;;;5052464;28;20385;-69
2022/06/09 02:35:31;;;;;;;0.40;0.20;;;14.90;99.90;;;;;;5056510;28;20379;-71
2022/06/09 02:38:00;;;;;;;0.40;0.20;;;14.70;99.90;;;;;;5072249;28;20380;-74
2022/06/09 02:40:27;;;;;;;0.40;0.20;;;14.50;99.90;;;;;;5071286;28;20856;-71
2022/06/09 02:42:53;;;;;;;0.40;0.20;;;14.30;99.90;;;;;;5072540;28;20903;-71
2022/06/09 02:45:19;;;;;;;0.40;0.30;;;14.30;99.90;;;;;;5071673;28;20403;-72
2022/06/09 02:47:44;;;;;;;0.70;0.60;;;14.30;99.90;;;;;;5072248;28;20400;-73
2022/06/09 02:50:10;;;;;;;0.40;0.20;;;14.20;99.90;;;;;;5071827;28;20517;-73
2022/06/09 02:52:36;;;;;;;0.40;0.20;;;14.20;99.90;;;;;;5071445;28;20387;-72
2022/06/09 02:55:02;;;;;;;0.40;0.20;;;14.20;99.90;;;;;;5072097;28;20376;-72
2022/06/09 02:57:29;;;;;;;0.40;0.20;;;14.10;99.90;;;;;;5053434;28;20431;-72
2022/06/09 02:59:55;;;;;;;0.40;0.30;;;14.10;99.90;;;;;;5072121;28;20379;-71
2022/06/09 03:02:21;;;;;;;0.40;0.20;;;14.10;99.90;;;;;;5071190;28;20382;-72
2022/06/09 03:04:47;;;;;;;0.40;0.38;;;14.10;99.90;;;;;;5071967;28;20376;-72
2022/06/09 03:07:13;;;;;;;0.40;0.20;;;14.10;99.90;;;;;;5071687;28;20765;-73
2022/06/09 03:09:39;;;;;;;0.40;0.20;;;14.00;99.90;;;;;;5071023;28;20483;-72
2022/06/09 03:12:05;;;;;;;0.40;0.20;;;14.00;99.90;;;;;;5072029;28;20417;-72
2022/06/09 03:14:32;;;;;;;0.40;0.30;;;14.00;99.90;;;;;;5070715;28;20449;-72
2022/06/09 03:16:59;;;;;;;0.40;0.30;;;14.00;99.90;;;;;;5071091;28;20416;-72
2022/06/09 03:19:25;;;;;;;0.40;0.20;;;14.00;99.90;;;;;;5070243;28;20384;-71
2022/06/09 03:21:50;;;;;;;0.40;0.20;;;14.00;99.90;;;;;;5052906;28;20418;-72
2022/06/09 03:24:16;;;;;;;0.40;0.20;;;14.00;99.90;;;;;;5070234;28;20789;-72
2022/06/09 03:26:42;;;;;;;0.40;0.30;;;14.00;99.90;;;;;;5070887;28;20433;-72
2022/06/09 03:29:08;;;;;;;0.40;0.20;;;14.00;99.90;;;;;;5070919;28;20411;-72
2022/06/09 03:31:34;;;;;;;0.40;0.20;;;14.00;99.90;;;;;;5052539;28;20882;-72
2022/06/09 03:34:00;;;;;;;0.40;0.30;;;14.00;99.90;;;;;;5068459;28;20395;-72
2022/06/09 03:36:26;;;;;;;0.40;0.20;;;13.90;99.90;;;;;;5051272;28;20400;-72
2022/06/09 03:38:52;;;;;;;0.40;0.30;;;14.00;99.90;;;;;;5071170;28;20383;-72
2022/06/09 03:41:17;;;;;;;0.40;0.20;;;13.90;99.90;;;;;;5070923;28;20376;-72
2022/06/09 03:43:43;;;;;;;0.40;0.20;;;14.00;99.90;;;;;;5070777;28;20411;-72
2022/06/09 03:46:11;;;;;;;0.40;0.20;;;14.00;99.90;;;;;;5070927;28;20392;-72
2022/06/09 03:48:37;;;;;;;0.40;0.30;;;14.00;99.90;;;;;;5069960;28;20396;-72
2022/06/09 03:51:02;;;;;;;0.40;0.20;;;14.10;99.90;;;;;;5058598;28;20424;-72
2022/06/09 03:53:28;;;;;;;0.40;0.20;;;14.10;99.90;;;;;;5070036;28;20376;-72
2022/06/09 03:55:55;;;;;;;0.40;0.30;;;14.10;99.90;;;;;;5070824;28;20391;-72
2022/06/09 03:58:21;;;;;;;0.40;0.20;;;14.10;99.90;;;;;;5069795;28;20403;-72
2022/06/09 04:00:47;;;;;;;0.40;0.20;;;14.10;99.90;;;;;;5070576;28;20376;-72
2022/06/09 04:03:12;;;;;;;0.40;0.20;;;14.10;99.90;;;;;;5070049;28;20391;-71
2022/06/09 04:05:38;;;;;;;0.40;0.30;;;14.10;99.90;;;;;;5069845;28;20947;-71
2022/06/09 04:08:04;;;;;;;0.40;0.20;;;14.10;99.90;;;;;;5070514;28;20803;-72
2022/06/09 04:10:32;;;;;;;0.40;0.20;;;14.20;99.90;;;;;;5070311;28;20392;-71
2022/06/09 04:12:57;;;;;;;0.40;0.20;;;14.20;99.90;;;;;;5070881;28;20862;-71
2022/06/09 04:15:24;;;;;;;0.40;0.20;;;14.10;99.90;;;;;;5070089;28;20397;-71
2022/06/09 04:17:51;;;;;;;0.40;0.20;;;14.20;99.90;;;;;;5071090;28;20376;-71
2022/06/09 04:20:19;;;;;;;0.40;0.20;;;14.20;99.90;;;;;;5063662;28;20752;-72
2022/06/09 04:22:45;;;;;;;0.40;0.20;;;14.10;99.90;;;;;;5070694;28;20434;-71
2022/06/09 04:25:11;;;;;;;0.40;0.20;;;14.10;99.90;;;;;;5070754;28;20848;-72
2022/06/09 04:27:37;;;;;;;0.40;0.30;;;14.20;99.90;;;;;;5069929;28;21236;-71
2022/06/09 04:30:03;;;;;;;0.60;0.60;;;14.20;99.90;;;;;;5070683;28;20392;-71
2022/06/09 04:32:29;;;;;;;0.40;0.20;;;14.20;99.90;;;;;;5069985;28;20380;-72
2022/06/09 04:34:54;;;;;;;0.50;0.35;;;14.20;99.90;;;;;;5070613;28;20411;-71
2022/06/09 04:37:20;;;;;;;0.40;0.20;;;14.30;99.90;;;;;;5070222;28;20380;-71
2022/06/09 04:39:46;;;;;;;0.40;0.20;;;14.30;99.90;;;;;;5070386;28;20383;-71
2022/06/09 04:42:11;;;;;;;0.40;0.20;;;14.30;99.90;;;;;;5070577;28;20469;-71
2022/06/09 04:44:37;;;;;;;0.40;0.20;;;14.30;99.90;;;;;;5069712;28;20408;-71
2022/06/09 04:47:03;;;;;;;0.40;0.20;;;14.30;99.90;;;;;;5070618;28;20407;-71
2022/06/09 04:49:28;;;;;;;0.40;0.20;;;14.30;99.90;;;;;;5069621;28;20400;-71
2022/06/09 04:51:54;;;;;;;0.40;0.23;;;14.30;99.90;;;;;;5070304;28;20411;-71
2022/06/09 04:54:20;;;;;;;0.40;0.20;;;14.20;99.90;;;;;;5070170;28;20784;-71
2022/06/09 04:56:45;;;;;;;0.40;0.30;;;14.20;99.90;;;;;;5070188;28;20390;-71
2022/06/09 04:59:11;;;;;;;0.40;0.20;;;14.20;99.90;;;;;;5070379;28;20702;-70
2022/06/09 05:01:38;;;;;;;0.40;0.20;;;14.20;99.90;;;;;;5069632;28;20390;-70
2022/06/09 05:04:04;;;;;;;0.40;0.20;;;14.20;99.90;;;;;;5070422;28;20465;-70
2022/06/09 05:06:30;;;;;;;0.40;0.30;;;14.10;99.90;;;;;;5069727;28;20759;-70
2022/06/09 05:08:56;;;;;;;0.40;0.30;;;14.10;99.90;;;;;;5070252;28;20415;-71
2022/06/09 05:11:24;;;;;;;0.40;0.30;;;14.10;99.90;;;;;;5058026;28;20471;-71
2022/06/09 05:13:50;;;;;;;0.40;0.20;;;14.10;99.90;;;;;;5050639;28;20458;-70
2022/06/09 05:16:17;;;;;;;0.40;0.25;;;14.10;99.90;;;;;;5061681;28;20399;-70
2022/06/09 05:18:43;;;;;;;0.40;0.25;;;14.20;99.90;;;;;;5069299;28;20553;-70
2022/06/09 05:21:09;;;;;;;0.40;0.30;;;14.20;99.90;;;;;;5070244;28;20855;-70
2022/06/09 05:23:36;;;;;;;0.60;0.60;;;14.20;99.90;;;;;;5054153;28;20381;-70
2022/06/09 05:26:04;;;;;;;0.40;0.30;;;14.30;99.90;;;;;;5064600;28;20744;-70
2022/06/09 05:28:31;;;;;;;0.40;0.20;;;14.30;99.90;;;;;;5059954;28;20423;-70
2022/06/09 05:30:57;;;;;;;0.40;0.20;;;14.20;99.90;;;;;;5064717;28;20397;-71
2022/06/09 05:33:23;;;;;;;0.40;0.20;;;14.30;99.90;;;;;;5058677;28;20556;-70
2022/06/09 05:35:49;;;;;;;0.80;0.80;;;14.20;99.90;;;;;;5049780;28;20420;-70
2022/06/09 05:46:32;;;;;;;0.40;0.20;;;14.30;99.90;;;;;;5065791;28;20518;-70
2022/06/09 05:48:57;;;;;;;0.40;0.25;;;14.40;99.90;;;;;;5054835;28;20401;-71
2022/06/09 05:51:23;;;;;;;0.40;0.20;;;14.40;99.90;;;;;;5053015;28;20494;-71
2022/06/09 05:53:49;;;;;;;0.40;0.30;;;14.40;99.90;;;;;;5058470;28;20474;-70
2022/06/09 05:56:16;;;;;;;0.40;0.20;;;14.40;99.90;;;;;;5064495;28;20493;-70
2022/06/09 05:58:42;;;;;;;0.40;0.20;;;14.40;99.90;;;;;;5066220;28;20405;-71
2022/06/09 06:01:10;;;;;;;0.40;0.20;;;14.50;99.90;;;;;;5073394;28;20382;-71
2022/06/09 06:03:38;;;;;;;0.40;0.20;;;14.50;99.90;;;;;;5072633;28;20398;-71
2022/06/09 06:08:48;;;;;;;0.40;0.30;;;14.80;99.90;;;;;;5072372;28;20513;-71
2022/06/09 06:11:17;;;;;;;0.40;0.20;;;14.90;99.90;;;;;;5073206;28;20372;-71
2022/06/09 06:13:44;;;;;;;0.40;0.20;;;15.00;99.90;;;;;;5054884;28;20492;-70
2022/06/09 06:16:10;;;;;;;0.40;0.40;;;15.00;99.90;;;;;;5073340;28;20412;-71
2022/06/09 06:18:35;;;;;;;0.40;0.30;;;15.00;99.90;;;;;;5069875;28;20970;-70
2022/06/09 06:21:01;;;;;;;0.40;0.30;;;15.00;99.90;;;;;;5074795;28;20376;-71
2022/06/09 06:23:27;;;;;;;0.40;0.20;;;15.10;99.90;;;;;;5066752;28;20404;-70
2022/06/09 06:25:54;;;;;;;0.40;0.22;;;15.10;99.90;;;;;;5071604;28;20423;-71
2022/06/09 06:28:21;;;;;;;0.40;0.20;;;15.00;99.90;;;;;;5052795;28;20419;-70
2022/06/09 06:30:47;;;;;;;0.40;0.20;;;14.90;99.90;;;;;;5067717;28;20577;-71
2022/06/09 06:33:13;;;;;;;0.40;0.20;;;14.80;99.90;;;;;;5064813;28;20403;-70
2022/06/09 06:35:38;;;;;;;0.40;0.20;;;14.70;99.90;;;;;;5070278;28;20394;-72
2022/06/09 06:38:04;;;;;;;0.40;0.30;;;14.50;99.90;;;;;;5072063;28;20734;-74
2022/06/09 06:40:30;;;;;;;0.40;0.20;;;14.10;99.90;;;;;;5072322;28;20388;-72
2022/06/09 06:42:55;;;;;;;0.40;0.20;;;13.60;99.90;;;;;;5069566;28;20412;-71
2022/06/09 06:45:21;;;;;;;0.40;0.20;;;12.80;99.90;;;;;;5068405;28;20799;-72
2022/06/09 06:47:47;;;;;;;0.40;0.20;;;12.10;99.90;;;;;;5071397;28;21369;-72
2022/06/09 06:50:13;;;;;;;0.40;0.20;;;11.80;99.90;;;;;;5071865;28;20471;-69
2022/06/09 06:52:39;;;;;;;0.40;0.20;;;11.60;99.90;;;;;;5071234;28;20459;-69
2022/06/09 06:55:06;;;;;;;0.40;0.20;;;11.60;99.90;;;;;;5071828;28;20474;-70
2022/06/09 06:57:33;;;;;;;0.40;0.20;;;11.50;99.90;;;;;;5070008;28;20380;-70
2022/06/09 07:00:00;;;;;;;0.40;0.20;;;11.20;99.90;;;;;;5071418;28;20875;-70
2022/06/09 07:02:26;;;;;;;0.40;0.20;;;11.20;99.90;;;;;;5071500;28;20410;-70
2022/06/09 07:04:52;;;;;;;0.40;0.20;;;11.30;99.90;;;;;;5066382;28;20393;-69
2022/06/09 07:07:17;;;;;;;0.40;0.30;;;11.20;99.90;;;;;;5069436;28;20372;-70
2022/06/09 07:09:43;;;;;;;0.40;0.20;;;11.10;99.90;;;;;;5070743;28;20412;-70
2022/06/09 07:12:09;;;;;;;0.40;0.20;;;11.40;99.90;;;;;;5070749;28;20763;-71
2022/06/09 07:14:35;;;;;;;0.40;0.20;;;11.50;99.90;;;;;;5070664;28;20732;-71
2022/06/09 07:17:01;;;;;;;0.40;0.20;;;11.60;99.90;;;;;;5071345;28;20486;-71
2022/06/09 07:19:29;;;;;;;0.40;0.20;;;11.60;99.90;;;;;;5071147;28;20882;-71
2022/06/09 07:21:55;;;;;;;0.40;0.20;;;11.70;99.90;;;;;;5056099;28;20405;-71
2022/06/09 07:24:22;;;;;;;0.40;0.30;;;11.60;99.90;;;;;;5068586;28;20463;-71
2022/06/09 07:26:47;;;;;;;0.50;0.50;;;11.60;99.90;;;;;;5065069;28;20403;-71
2022/06/09 07:29:13;;;;;;;0.40;0.20;;;11.70;99.90;;;;;;5071671;28;20407;-71
2022/06/09 07:31:39;;;;;;;0.40;0.20;;;11.60;99.90;;;;;;5069241;28;20464;-72
2022/06/09 07:34:05;;;;;;;0.40;0.20;;;11.70;99.90;;;;;;5063611;28;20404;-72
2022/06/09 07:36:31;;;;;;;0.40;0.20;;;11.70;99.90;;;;;;5050806;28;20454;-73
2022/06/09 07:38:57;;;;;;;0.40;0.20;;;11.80;99.90;;;;;;5061236;28;20781;-73
2022/06/09 07:41:23;;;;;;;0.40;0.30;;;11.90;99.90;;;;;;5064114;28;20392;-73
2022/06/09 07:43:49;;;;;;;0.40;0.30;;;12.10;99.90;;;;;;5066654;28;20426;-73
2022/06/09 07:46:16;;;;;;;0.40;0.20;;;12.20;99.90;;;;;;5071337;28;20843;-73
2022/06/09 07:48:42;;;;;;;0.40;0.30;;;12.40;99.90;;;;;;5070604;28;20491;-73
2022/06/09 07:51:08;;;;;;;0.40;0.20;;;12.50;99.90;;;;;;5065813;28;20733;-74
2022/06/09 07:53:34;;;;;;;0.40;0.20;;;12.60;99.90;;;;;;5050410;28;20393;-74
2022/06/09 07:56:00;;;;;;;0.40;0.20;;;12.80;99.90;;;;;;5051295;28;20403;-74
2022/06/09 07:58:26;;;;;;;0.40;0.20;;;12.80;99.90;;;;;;5042694;28;20467;-73
2022/06/09 08:00:52;;;;;;;0.40;0.20;;;12.70;99.90;;;;;;5070222;28;20375;-74
2022/06/09 08:03:21;;;;;;;0.40;0.20;;;12.80;99.90;;;;;;5065231;28;20400;-75
2022/06/09 08:05:48;;;;;;;0.40;0.20;;;12.90;99.90;;;;;;5067228;28;20447;-75
2022/06/09 08:08:14;;;;;;;0.40;0.20;;;13.00;99.90;;;;;;5064451;28;20396;-72
2022/06/09 08:10:41;;;;;;;0.70;0.70;;;13.10;99.90;;;;;;5063899;28;20873;-72
2022/06/09 08:13:08;;;;;;;0.40;0.20;;;13.10;99.90;;;;;;5062015;28;20398;-72
2022/06/09 08:15:34;;;;;;;0.40;0.20;;;13.40;99.90;;;;;;5067617;28;20379;-73
2022/06/09 08:18:00;;;;;;;0.40;0.20;;;13.60;99.90;;;;;;5068229;28;20499;-73
2022/06/09 08:20:31;;;;;;;0.40;0.20;;;13.80;99.90;;;;;;5067749;28;20392;-74
2022/06/09 08:23:08;;;;;;;0.40;0.20;;;14.00;99.90;;;;;;5063830;28;20962;-75
2022/06/09 08:25:35;;;;;;;0.40;0.20;;;13.90;99.90;;;;;;5068768;28;20395;-73
2022/06/09 08:28:02;;;;;;;0.40;0.20;;;14.00;99.90;;;;;;5069023;28;20505;-72
2022/06/09 08:30:28;;;;;;;0.40;0.20;;;14.30;99.90;;;;;;5069405;28;20406;-70
2022/06/09 08:32:54;;;;;;;0.40;0.20;;;14.20;99.90;;;;;;5063781;28;20397;-73
2022/06/09 08:35:20;;;;;;;0.40;0.20;;;14.20;99.90;;;;;;5070703;28;20740;-71
2022/06/09 08:37:48;;;;;;;0.40;0.30;;;14.20;99.90;;;;;;5069495;28;20391;-71
2022/06/09 08:41:00;;;;;;;0.40;0.20;;;14.20;99.90;;;;;;5070144;28;20438;-69
2022/06/09 08:43:47;;;;;;;0.40;0.20;;;14.20;99.90;;;;;;5030295;28;20405;-69
2022/06/09 08:46:18;;;;;;;0.40;0.20;;;14.30;99.90;;;;;;5060108;28;20404;-73
2022/06/09 08:48:46;;;;;;;0.40;0.20;;;14.40;99.90;;;;;;5069139;28;20426;-73
2022/06/09 08:51:24;;;;;;;0.40;0.20;;;14.50;99.90;;;;;;5067304;28;20388;-70
2022/06/09 08:53:56;;;;;;;15.18;10.10;;;14.60;99.90;;;;;;5054111;28;20670;-70
2022/06/09 08:56:29;;;;;;;4.30;4.00;;;14.60;99.90;;;;;;5070442;28;20380;-70
2022/06/09 08:58:56;;;;;;;0.40;0.40;;;14.70;99.90;;;;;;5063280;28;20408;-70
2022/06/09 09:01:50;;;;;;;0.40;0.40;;;14.70;99.90;;;;;;5065851;28;20475;-69
2022/06/09 09:04:26;;;;;;;0.40;0.30;;;14.90;99.90;;;;;;5066625;28;20402;-69
2022/06/09 09:07:26;;;;;;;0.40;0.20;;;15.00;99.90;;;;;;5069230;28;20846;-69
2022/06/09 09:10:15;;;;;;;0.40;0.20;;;15.00;99.90;;;;;;5058175;28;20919;-70
2022/06/09 09:12:50;;;;;;;0.40;0.20;;;14.80;99.90;;;;;;5062226;28;20625;-69
2022/06/09 09:15:35;;;;;;;0.40;0.20;;;14.80;99.90;;;;;;5066655;28;20383;-69
2022/06/09 09:18:16;;;;;;;0.40;0.20;;;14.80;99.90;;;;;;5049974;28;20389;-68
2022/06/09 09:21:04;;;;;;;0.40;0.20;;;15.00;99.90;;;;;;5058875;28;20401;-68
2022/06/09 09:23:46;;;;;;;0.40;0.40;;;15.20;99.90;;;;;;5060356;28;20892;-69
2022/06/09 09:26:35;;;;;;;0.40;0.20;;;15.30;99.90;;;;;;5073618;28;20396;-70
2022/06/09 09:29:16;;;;;;;0.40;0.30;;;15.30;99.90;;;;;;5068360;28;20411;-70
2022/06/09 09:31:50;;;;;;;0.60;0.60;;;15.10;99.90;;;;;;5064452;28;20407;-70
2022/06/09 09:34:21;;;;;;;0.40;0.40;;;15.10;99.90;;;;;;5073117;28;20925;-70
2022/06/09 09:36:53;;;;;;;0.40;0.20;;;15.10;99.90;;;;;;5072007;28;20404;-70
2022/06/09 09:39:34;;;;;;;1.00;0.80;;;15.30;99.90;;;;;;5072108;28;20395;-71
2022/06/09 09:42:17;;;;;;;0.40;0.20;;;15.60;99.90;;;;;;5072047;28;20403;-70
2022/06/09 09:45:04;;;;;;;0.40;0.20;;;15.90;99.90;;;;;;5067369;28;20879;-70
2022/06/09 09:47:32;;;;;;;0.40;0.20;;;15.90;99.90;;;;;;5067709;28;20946;-70
2022/06/09 09:50:07;;;;;;;0.40;0.20;;;16.00;99.90;;;;;;5065306;28;20681;-70
2022/06/09 09:52:43;;;;;;;0.40;0.20;;;16.00;99.90;;;;;;5065373;28;20806;-69
2022/06/09 09:55:38;;;;;;;0.40;0.20;;;16.10;99.90;;;;;;5068676;28;20388;-70
2022/06/09 09:58:36;;;;;;;0.40;0.30;;;16.10;99.90;;;;;;5057383;28;20392;-69
2022/06/09 10:01:16;;;;;;;0.40;0.30;;;15.90;99.90;;;;;;5072889;28;20412;-69
2022/06/09 10:10:09;;;;;;;0.40;0.20;;;16.20;99.90;;;;;;5072182;28;20404;-68
2022/06/09 10:12:35;;;;;;;0.40;0.20;;;16.10;99.90;;;;;;5078417;28;20482;-68
2022/06/09 10:15:10;;;;;;;0.40;0.20;;;15.90;99.90;;;;;;5074295;28;20407;-69
2022/06/09 10:17:59;;;;;;;0.40;0.20;;;15.90;99.90;;;;;;5065016;28;20402;-69
2022/06/09 10:20:43;;;;;;;0.43;0.43;;;15.80;99.90;;;;;;5073604;28;20434;-68
2022/06/09 10:23:18;;;;;;;0.40;0.20;;;15.40;99.90;;;;;;5076930;28;20418;-70
2022/06/09 10:26:07;;;;;;;0.40;0.30;;;14.90;99.90;;;;;;5076853;28;20388;-71
2022/06/09 10:29:06;;;;;;;0.40;0.20;;;14.50;99.90;;;;;;5072766;28;20483;-71
2022/06/09 10:31:45;;;;;;;0.40;0.20;;;14.30;99.90;;;;;;5072735;28;20526;-71
2022/06/09 10:34:16;;;;;;;0.40;0.40;;;13.90;99.90;;;;;;5072511;28;20407;-71
2022/06/09 10:37:09;;;;;;;0.40;0.20;;;13.80;99.90;;;;;;5071518;28;20384;-70
2022/06/09 10:39:52;;;;;;;0.40;0.20;;;13.80;99.90;;;;;;5072221;28;20442;-70
2022/06/09 10:42:33;;;;;;;0.90;0.90;;;13.80;99.90;;;;;;5072534;28;20387;-70
2022/06/09 10:45:17;;;;;;;0.40;0.20;;;13.80;99.90;;;;;;5071757;28;20415;-70
2022/06/09 10:57:01;;;;;;;0.40;0.20;;;13.70;99.90;;;;;;5063692;28;20468;-71
2022/06/09 10:59:53;;;;;;;0.40;0.30;;;13.80;99.90;;;;;;5063829;28;20501;-71
2022/06/09 11:02:23;;;;;;;0.40;0.20;;;14.00;99.90;;;;;;5058114;28;20409;-71
2022/06/09 11:04:51;;;;;;;0.40;0.20;;;14.20;99.90;;;;;;5058590;28;20399;-72
2022/06/09 11:07:37;;;;;;;0.40;0.20;;;14.40;99.90;;;;;;5065109;28;20406;-71
2022/06/09 11:10:11;;;;;;;0.40;0.28;;;14.50;99.90;;;;;;5061287;28;20673;-72
2022/06/09 11:13:02;;;;;;;0.40;0.25;;;14.70;99.90;;;;;;5062788;28;20460;-72
2022/06/09 11:15:37;;;;;;;0.65;0.65;;;14.80;99.90;;;;;;5065781;28;20396;-71
2022/06/09 11:18:02;;;;;;;0.40;0.30;;;15.00;99.90;;;;;;5069256;28;20542;-70
2022/06/09 11:20:43;;;;;;;0.40;0.20;;;15.10;99.90;;;;;;5070127;28;20867;-72
2022/06/09 11:23:59;;;;;;;0.40;0.30;;;15.50;99.90;;;;;;5067885;28;20451;-71
2022/06/09 11:26:50;;;;;;;0.40;0.20;;;16.20;99.90;;;;;;4967007;28;20396;-71
2022/06/09 11:29:48;;;;;;;0.40;0.20;;;16.30;99.90;;;;;;5024021;28;20515;-71
2022/06/09 11:32:41;;;;;;;0.40;0.20;;;16.40;99.90;;;;;;5055588;28;20505;-70
2022/06/09 11:35:37;;;;;;;0.40;0.30;;;16.60;99.90;;;;;;5067319;28;20380;-71
2022/06/09 11:38:18;;;;;;;0.40;0.30;;;16.30;99.90;;;;;;5069315;28;20418;-71
2022/06/09 11:41:08;;;;;;;0.50;0.50;;;16.30;99.90;;;;;;5069870;28;20470;-71
2022/06/09 11:43:52;;;;;;;2.50;0.80;;;15.80;99.90;;;;;;5068160;28;20427;-71
2022/06/09 11:46:23;;;;;;;107.43;9.02;;;16.00;99.90;;;;;;5069796;28;20845;-71
2022/06/09 11:48:53;;;;;;;0.40;0.30;;;16.00;99.90;;;;;;5069405;28;20417;-70
2022/06/09 11:51:22;;;;;;;0.40;0.20;;;16.10;99.90;;;;;;5070543;28;20871;-71
2022/06/09 11:53:52;;;;;;;0.40;0.20;;;16.20;99.90;;;;;;5069933;28;20413;-69
2022/06/09 11:56:40;;;;;;;0.40;0.20;;;17.10;99.90;;;;;;5071102;28;20490;-69
2022/06/09 11:59:12;;;;;;;0.40;0.20;;;18.50;99.90;;;;;;5068794;28;20379;-69
2022/06/09 12:01:37;;;;;;;0.40;0.30;;;19.30;99.90;;;;;;5070673;28;20546;-69
2022/06/09 12:04:22;;;;;;;0.40;0.20;;;19.50;99.90;;;;;;5069422;28;21266;-69
2022/06/09 12:07:13;;;;;;;0.40;0.30;;;19.30;99.90;;;;;;5069138;28;20511;-70
2022/06/09 12:10:29;;;;;;;0.40;0.30;;;18.40;99.90;;;;;;5065418;28;20498;-69
2022/06/09 12:13:16;;;;;;;1.30;0.50;;;17.30;99.90;;;;;;5055265;28;20428;-69
2022/06/09 12:15:50;;;;;;;0.40;0.20;;;17.00;99.90;;;;;;5062209;28;20402;-70
2022/06/09 12:18:17;;;;;;;0.40;0.30;;;17.30;99.90;;;;;;5068123;28;20937;-69
2022/06/09 12:20:46;;;;;;;0.40;0.30;;;16.90;99.90;;;;;;5064708;28;20410;-70
2022/06/09 12:23:30;;;;;;;0.40;0.20;;;16.60;99.90;;;;;;5065895;28;20401;-70
2022/06/09 12:26:16;;;;;;;0.40;0.30;;;16.10;99.90;;;;;;5060039;28;20376;-70
2022/06/09 12:28:52;;;;;;;0.40;0.30;;;15.90;99.90;;;;;;5070508;28;20414;-70
2022/06/09 12:31:31;;;;;;;0.40;0.20;;;15.70;99.90;;;;;;5070538;28;20382;-70
2022/06/09 12:34:02;;;;;;;0.50;0.40;;;15.60;99.90;;;;;;5065808;28;20466;-69
2022/06/09 12:36:33;;;;;;;0.40;0.20;;;15.30;99.90;;;;;;5067814;28;20441;-69
2022/06/09 12:39:01;;;;;;;0.40;0.30;;;15.20;99.90;;;;;;5067466;28;20403;-70
2022/06/09 12:41:38;;;;;;;0.40;0.28;;;15.10;99.90;;;;;;5064905;28;20384;-69
2022/06/09 12:44:22;;;;;;;0.40;0.20;;;14.90;99.90;;;;;;5064528;28;20754;-69
2022/06/09 12:47:17;;;;;;;0.40;0.30;;;15.00;99.90;;;;;;5067706;28;20383;-70
2022/06/09 12:49:45;;;;;;;0.50;0.50;;;14.90;99.90;;;;;;5064817;28;20972;-69
2022/06/09 12:52:40;;;;;;;0.40;0.20;;;14.80;99.90;;;;;;5054231;28;20455;-70
2022/06/09 12:55:08;;;;;;;0.80;0.80;;;14.80;99.90;;;;;;5065084;28;20407;-70
2022/06/09 12:57:43;;;;;;;2.20;1.00;;;14.90;99.90;;;;;;5073665;28;20395;-70
2022/06/09 13:00:16;;;;;;;0.40;0.20;;;15.00;99.90;;;;;;5068153;28;20398;-70
2022/06/09 13:02:42;;;;;;;0.40;0.20;;;15.30;99.90;;;;;;5073637;28;20388;-69
2022/06/09 13:05:31;;;;;;;0.40;0.20;;;15.80;99.90;;;;;;5071352;28;20409;-69
2022/06/09 13:08:01;;;;;;;0.40;0.30;;;17.30;99.90;;;;;;5065025;28;20420;-70
2022/06/09 13:10:30;;;;;;;0.60;0.60;;;17.80;99.90;;;;;;5070058;28;20403;-69
2022/06/09 13:13:05;;;;;;;0.40;0.30;;;17.90;99.90;;;;;;5073385;28;20391;-70
2022/06/09 13:15:55;;;;;;;0.40;0.20;;;17.50;99.90;;;;;;5068300;28;20728;-69
2022/06/09 13:18:37;;;;;;;0.40;0.30;;;17.50;99.90;;;;;;5061653;28;20413;-70
2022/06/09 13:21:13;;;;;;;0.40;0.20;;;17.70;99.90;;;;;;5066041;28;20391;-70
2022/06/09 13:23:41;;;;;;;0.63;0.32;;;18.20;99.90;;;;;;5065801;28;20392;-69
2022/06/09 13:26:10;;;;;;;0.40;0.20;;;19.20;99.90;;;;;;5069366;28;20461;-69
2022/06/09 13:28:51;;;;;;;0.40;0.30;;;19.40;99.90;;;;;;5061819;28;20412;-69
2022/06/09 13:31:37;;;;;;;0.40;0.20;;;19.40;99.90;;;;;;5049975;28;20545;-69
2022/06/09 13:34:12;;;;;;;0.50;0.40;;;20.10;99.90;;;;;;5065534;28;20435;-70
2022/06/09 13:37:08;;;;;;;0.40;0.20;;;20.30;99.90;;;;;;5063738;28;20394;-69
2022/06/09 13:39:38;;;;;;;0.40;0.20;;;20.10;99.90;;;;;;5059986;28;20442;-69